Time;durP1;ratioP1;P1;durP2;ratioP2;P2;SDS_P1;SDS_P2;PMS_P1;PMS_P2;Temp;Humidity;BMP_temperature;BMP_pressure;BME280_temperature;BME280_humidity;BME280_pressure;Samples;Min_cycle;Max_cycle;Signal;HPM_P1;HPM_P2
2023/07/30 00:02:00;;;;;;;6.07;4.43;;;;;;;;;;4972688;28;20222;-51
2023/07/30 00:04:27;;;;;;;6.43;4.37;;;;;;;;;;4978173;28;20183;-51
2023/07/30 00:06:53;;;;;;;5.93;4.90;;;;;;;;;;4979965;28;20212;-51
2023/07/30 00:09:19;;;;;;;7.60;4.83;;;;;;;;;;4982642;28;20176;-51
2023/07/30 00:11:45;;;;;;;6.50;4.90;;;;;;;;;;4981825;28;20208;-51
2023/07/30 00:14:11;;;;;;;6.00;4.30;;;;;;;;;;4971316;28;20235;-51
2023/07/30 00:16:37;;;;;;;7.47;4.17;;;;;;;;;;4971717;28;20185;-51
2023/07/30 00:19:03;;;;;;;7.00;4.03;;;;;;;;;;4977505;28;20667;-51
2023/07/30 00:21:29;;;;;;;6.70;4.20;;;;;;;;;;4979473;28;20189;-51
2023/07/30 00:23:55;;;;;;;5.13;3.80;;;;;;;;;;4974619;28;20748;-51
2023/07/30 00:26:21;;;;;;;5.57;3.53;;;;;;;;;;4974085;28;20214;-51
2023/07/30 00:28:47;;;;;;;3.47;2.93;;;;;;;;;;4985995;28;20272;-51
2023/07/30 00:31:13;;;;;;;3.60;3.27;;;;;;;;;;4974755;28;20371;-51
2023/07/30 00:33:39;;;;;;;3.50;3.20;;;;;;;;;;4975218;28;20643;-51
2023/07/30 00:36:05;;;;;;;3.40;2.87;;;;;;;;;;4982075;28;20280;-51
2023/07/30 00:38:31;;;;;;;5.27;3.43;;;;;;;;;;4982405;28;20193;-51
2023/07/30 00:40:57;;;;;;;5.17;3.30;;;;;;;;;;4986812;28;20196;-51
2023/07/30 00:43:23;;;;;;;3.30;3.00;;;;;;;;;;4986376;28;20192;-51
2023/07/30 00:45:50;;;;;;;4.33;2.83;;;;;;;;;;4974923;28;20940;-51
2023/07/30 00:48:16;;;;;;;3.33;3.03;;;;;;;;;;4976176;28;20200;-51
2023/07/30 00:50:42;;;;;;;3.97;2.60;;;;;;;;;;4973385;28;20187;-54
2023/07/30 00:53:09;;;;;;;2.90;2.70;;;;;;;;;;4978240;28;20545;-53
2023/07/30 00:55:35;;;;;;;5.20;3.10;;;;;;;;;;4980646;28;20197;-53
2023/07/30 00:58:02;;;;;;;3.17;2.77;;;;;;;;;;4975883;28;20188;-53
2023/07/30 01:00:29;;;;;;;3.40;2.60;;;;;;;;;;4978983;28;20189;-53
2023/07/30 01:02:56;;;;;;;4.17;2.93;;;;;;;;;;4978175;28;20299;-53
2023/07/30 01:05:22;;;;;;;3.47;3.17;;;;;;;;;;4977731;28;20295;-53
2023/07/30 01:07:48;;;;;;;4.63;2.73;;;;;;;;;;4978510;28;20541;-53
2023/07/30 01:10:15;;;;;;;2.80;2.60;;;;;;;;;;4973487;28;20649;-53
2023/07/30 01:12:42;;;;;;;2.73;2.23;;;;;;;;;;4973788;28;20189;-53
2023/07/30 01:15:09;;;;;;;4.20;2.60;;;;;;;;;;4973312;28;20589;-52
2023/07/30 01:17:35;;;;;;;3.80;3.10;;;;;;;;;;4979174;28;20447;-53
2023/07/30 01:20:01;;;;;;;2.90;2.43;;;;;;;;;;4984711;28;20186;-53
2023/07/30 01:22:27;;;;;;;3.50;3.07;;;;;;;;;;4978100;28;20197;-53
2023/07/30 01:24:53;;;;;;;4.43;2.80;;;;;;;;;;4976247;28;20647;-53
2023/07/30 01:27:23;;;;;;;2.90;2.57;;;;;;;;;;4978836;28;20176;-53
2023/07/30 01:29:54;;;;;;;2.80;2.60;;;;;;;;;;4978706;28;20235;-53
2023/07/30 01:32:23;;;;;;;4.90;2.53;;;;;;;;;;4974038;28;20204;-53
2023/07/30 01:34:51;;;;;;;3.33;2.70;;;;;;;;;;4980227;28;20196;-53
2023/07/30 01:37:17;;;;;;;6.33;2.83;;;;;;;;;;4979513;28;20192;-52
2023/07/30 01:39:43;;;;;;;4.07;2.70;;;;;;;;;;4976759;28;20740;-53
2023/07/30 01:42:12;;;;;;;5.50;2.87;;;;;;;;;;4982153;28;20719;-53
2023/07/30 01:44:38;;;;;;;3.87;2.43;;;;;;;;;;4978745;28;20187;-53
2023/07/30 01:47:04;;;;;;;4.67;3.77;;;;;;;;;;4981058;28;20676;-53
2023/07/30 01:49:30;;;;;;;3.37;2.77;;;;;;;;;;4979976;28;20181;-53
2023/07/30 01:51:56;;;;;;;3.80;2.60;;;;;;;;;;4975781;28;20188;-53
2023/07/30 01:54:22;;;;;;;3.77;2.63;;;;;;;;;;4980523;28;20184;-53
2023/07/30 01:56:48;;;;;;;4.70;3.03;;;;;;;;;;4971801;28;20195;-53
2023/07/30 01:59:14;;;;;;;3.17;2.50;;;;;;;;;;4975121;28;20183;-53
2023/07/30 02:01:40;;;;;;;8.40;3.07;;;;;;;;;;4982394;28;20271;-51
2023/07/30 02:04:06;;;;;;;4.53;2.60;;;;;;;;;;4976154;28;20249;-51
2023/07/30 02:06:32;;;;;;;3.17;2.63;;;;;;;;;;4976441;28;20868;-50
2023/07/30 02:08:59;;;;;;;3.00;2.70;;;;;;;;;;4980679;28;20192;-51
2023/07/30 02:11:25;;;;;;;4.57;2.60;;;;;;;;;;4971491;28;20184;-51
2023/07/30 02:13:51;;;;;;;4.33;2.57;;;;;;;;;;4973036;28;20204;-51
2023/07/30 02:16:17;;;;;;;4.23;2.60;;;;;;;;;;4983747;28;20227;-51
2023/07/30 02:18:43;;;;;;;6.10;2.93;;;;;;;;;;4976238;28;21020;-51
2023/07/30 02:21:09;;;;;;;3.70;3.00;;;;;;;;;;4973542;28;20274;-51
2023/07/30 02:23:35;;;;;;;3.73;2.53;;;;;;;;;;4979905;28;20272;-51
2023/07/30 02:26:01;;;;;;;4.13;2.83;;;;;;;;;;4977199;28;20228;-51
2023/07/30 02:28:27;;;;;;;2.67;2.43;;;;;;;;;;4977122;28;20521;-52
2023/07/30 02:30:53;;;;;;;4.30;2.80;;;;;;;;;;4975568;28;20255;-51
2023/07/30 02:33:19;;;;;;;3.40;2.57;;;;;;;;;;4981721;28;20195;-51
2023/07/30 02:35:45;;;;;;;3.60;2.70;;;;;;;;;;4976702;28;20196;-51
2023/07/30 02:38:11;;;;;;;7.13;2.97;;;;;;;;;;4976175;28;20175;-51
2023/07/30 02:40:37;;;;;;;2.70;2.23;;;;;;;;;;4978708;28;20195;-51
2023/07/30 02:43:03;;;;;;;2.77;2.57;;;;;;;;;;4986465;28;20269;-52
2023/07/30 02:45:30;;;;;;;2.77;2.40;;;;;;;;;;4984831;28;20215;-51
2023/07/30 02:47:56;;;;;;;3.17;2.53;;;;;;;;;;4976419;28;20671;-51
2023/07/30 02:50:22;;;;;;;3.13;2.83;;;;;;;;;;4974529;28;20180;-51
2023/07/30 02:52:48;;;;;;;3.57;2.73;;;;;;;;;;4982677;28;20238;-52
2023/07/30 02:55:16;;;;;;;5.20;2.80;;;;;;;;;;4977697;28;20194;-51
2023/07/30 02:57:42;;;;;;;5.47;2.60;;;;;;;;;;4972962;28;20657;-51
2023/07/30 03:00:11;;;;;;;7.57;3.07;;;;;;;;;;4974865;28;20192;-51
2023/07/30 03:02:37;;;;;;;3.90;3.20;;;;;;;;;;4982255;28;20590;-51
2023/07/30 03:05:03;;;;;;;4.77;3.20;;;;;;;;;;4972937;28;20203;-51
2023/07/30 03:07:29;;;;;;;4.07;3.20;;;;;;;;;;4975399;28;20203;-51
2023/07/30 03:09:55;;;;;;;3.40;3.07;;;;;;;;;;4978146;28;20176;-50
2023/07/30 03:12:21;;;;;;;4.47;2.90;;;;;;;;;;4972869;28;20191;-50
2023/07/30 03:14:47;;;;;;;6.57;3.00;;;;;;;;;;4976815;28;20187;-50
2023/07/30 03:17:13;;;;;;;4.30;3.50;;;;;;;;;;4973103;28;20188;-50
2023/07/30 03:19:39;;;;;;;4.20;2.97;;;;;;;;;;4975117;28;20172;-51
2023/07/30 03:22:05;;;;;;;4.17;2.80;;;;;;;;;;4979050;28;20734;-50
2023/07/30 03:24:31;;;;;;;3.23;2.70;;;;;;;;;;4975124;28;20191;-50
2023/07/30 03:26:57;;;;;;;4.87;3.27;;;;;;;;;;4972121;28;20203;-50
2023/07/30 03:29:23;;;;;;;2.83;2.50;;;;;;;;;;4977801;28;20636;-50
2023/07/30 03:31:49;;;;;;;4.03;3.50;;;;;;;;;;4973877;28;20281;-50
2023/07/30 03:34:15;;;;;;;3.43;2.80;;;;;;;;;;4974301;28;20191;-50
2023/07/30 03:36:41;;;;;;;3.00;2.70;;;;;;;;;;4972372;28;20303;-50
2023/07/30 03:39:07;;;;;;;3.90;2.57;;;;;;;;;;4977390;28;20525;-50
2023/07/30 03:41:35;;;;;;;5.67;3.00;;;;;;;;;;4969365;28;20757;-50
2023/07/30 03:44:01;;;;;;;6.97;3.07;;;;;;;;;;4977753;28;20604;-50
2023/07/30 03:46:27;;;;;;;2.77;2.47;;;;;;;;;;4977283;28;20208;-49
2023/07/30 03:48:53;;;;;;;3.53;2.70;;;;;;;;;;4976361;28;20230;-49
2023/07/30 03:51:19;;;;;;;3.73;2.43;;;;;;;;;;4971997;28;20184;-49
2023/07/30 03:53:45;;;;;;;4.23;2.83;;;;;;;;;;4973256;28;20191;-50
2023/07/30 03:56:11;;;;;;;3.77;2.60;;;;;;;;;;4977614;28;20194;-50
2023/07/30 03:58:37;;;;;;;5.00;3.57;;;;;;;;;;4976623;28;20953;-53
2023/07/30 04:01:03;;;;;;;5.53;2.90;;;;;;;;;;4975326;28;20192;-50
2023/07/30 04:03:29;;;;;;;4.17;2.80;;;;;;;;;;4976451;28;20192;-50
2023/07/30 04:05:55;;;;;;;4.07;2.40;;;;;;;;;;4976376;28;20203;-49
2023/07/30 04:08:21;;;;;;;4.97;2.97;;;;;;;;;;4989622;28;20184;-49
2023/07/30 04:10:47;;;;;;;4.93;3.13;;;;;;;;;;4977597;28;20259;-49
2023/07/30 04:13:14;;;;;;;4.23;2.83;;;;;;;;;;4979244;28;20528;-50
2023/07/30 04:15:40;;;;;;;3.33;2.73;;;;;;;;;;4979718;28;20259;-49
2023/07/30 04:18:06;;;;;;;4.30;2.53;;;;;;;;;;4981713;28;20203;-50
2023/07/30 04:20:32;;;;;;;3.40;2.80;;;;;;;;;;4973158;28;20662;-49
2023/07/30 04:22:58;;;;;;;4.27;2.80;;;;;;;;;;4988035;28;20658;-49
2023/07/30 04:25:24;;;;;;;5.20;3.07;;;;;;;;;;4982668;28;20199;-49
2023/07/30 04:27:50;;;;;;;3.87;2.90;;;;;;;;;;4989972;28;20183;-49
2023/07/30 04:30:16;;;;;;;3.73;2.50;;;;;;;;;;4977915;28;20325;-49
2023/07/30 04:32:42;;;;;;;3.00;2.70;;;;;;;;;;4988002;28;21194;-49
2023/07/30 04:35:08;;;;;;;3.17;2.40;;;;;;;;;;4983885;28;20218;-49
2023/07/30 04:37:34;;;;;;;5.37;2.57;;;;;;;;;;4982840;28;20752;-50
2023/07/30 04:40:00;;;;;;;5.80;2.70;;;;;;;;;;4979987;28;20183;-49
2023/07/30 04:42:26;;;;;;;5.23;2.83;;;;;;;;;;4981267;28;20238;-50
2023/07/30 04:44:52;;;;;;;4.83;2.83;;;;;;;;;;4979618;28;20660;-50
2023/07/30 04:47:18;;;;;;;6.20;3.00;;;;;;;;;;4988719;28;20187;-49
2023/07/30 04:49:44;;;;;;;7.23;3.37;;;;;;;;;;4987977;28;20184;-49
2023/07/30 04:52:11;;;;;;;6.33;3.30;;;;;;;;;;4988500;28;20583;-49
2023/07/30 04:54:37;;;;;;;6.43;3.20;;;;;;;;;;4973979;28;20246;-50
2023/07/30 04:57:03;;;;;;;5.53;3.30;;;;;;;;;;4979875;28;20669;-50
2023/07/30 04:59:29;;;;;;;4.07;2.77;;;;;;;;;;4977689;28;20184;-50
2023/07/30 05:01:55;;;;;;;6.43;2.87;;;;;;;;;;4980523;28;20222;-50
2023/07/30 05:04:22;;;;;;;7.13;3.10;;;;;;;;;;4985309;28;20184;-50
2023/07/30 05:06:48;;;;;;;5.23;2.90;;;;;;;;;;4976920;28;20206;-50
2023/07/30 05:09:14;;;;;;;5.10;3.07;;;;;;;;;;4975671;28;20564;-51
2023/07/30 05:11:40;;;;;;;4.63;2.97;;;;;;;;;;4979896;28;20179;-51
2023/07/30 05:14:06;;;;;;;5.27;3.20;;;;;;;;;;4977210;28;20275;-50
2023/07/30 05:16:32;;;;;;;5.27;3.13;;;;;;;;;;4978225;28;20287;-49
2023/07/30 05:18:58;;;;;;;5.17;3.23;;;;;;;;;;4973617;28;20200;-50
2023/07/30 05:21:24;;;;;;;6.33;3.50;;;;;;;;;;4974863;28;20518;-50
2023/07/30 05:23:50;;;;;;;5.23;3.23;;;;;;;;;;4976559;28;20793;-50
2023/07/30 05:26:16;;;;;;;6.83;3.73;;;;;;;;;;4984896;28;20211;-50
2023/07/30 05:28:42;;;;;;;6.73;3.23;;;;;;;;;;4973590;28;20179;-51
2023/07/30 05:31:08;;;;;;;5.97;2.90;;;;;;;;;;4976675;28;20239;-53
2023/07/30 05:33:34;;;;;;;4.77;2.97;;;;;;;;;;4975424;28;20188;-53
2023/07/30 05:36:00;;;;;;;6.50;2.83;;;;;;;;;;4971982;28;20191;-53
2023/07/30 05:38:26;;;;;;;6.57;4.07;;;;;;;;;;4975422;28;20187;-54
2023/07/30 05:40:52;;;;;;;3.10;2.80;;;;;;;;;;4972340;28;20188;-53
2023/07/30 05:43:18;;;;;;;5.90;3.20;;;;;;;;;;4980382;28;20194;-53
2023/07/30 05:45:44;;;;;;;6.47;2.70;;;;;;;;;;4979292;28;20294;-54
2023/07/30 05:48:10;;;;;;;6.60;3.33;;;;;;;;;;4977706;28;20941;-52
2023/07/30 05:50:36;;;;;;;6.13;3.10;;;;;;;;;;4979281;28;20546;-52
2023/07/30 05:53:02;;;;;;;4.17;2.70;;;;;;;;;;4981762;28;20187;-52
2023/07/30 05:55:28;;;;;;;4.13;2.50;;;;;;;;;;4978814;28;20187;-53
2023/07/30 05:57:55;;;;;;;6.17;3.30;;;;;;;;;;4980061;28;20205;-53
2023/07/30 06:00:24;;;;;;;4.17;2.33;;;;;;;;;;4983718;28;20182;-53
2023/07/30 06:02:50;;;;;;;5.77;3.17;;;;;;;;;;4973332;28;20270;-53
2023/07/30 06:05:16;;;;;;;4.90;2.80;;;;;;;;;;4984167;28;20210;-53
2023/07/30 06:07:42;;;;;;;6.77;2.80;;;;;;;;;;4977532;28;20184;-53
2023/07/30 06:10:08;;;;;;;4.17;2.30;;;;;;;;;;4974552;28;20184;-54
2023/07/30 06:12:34;;;;;;;4.50;2.67;;;;;;;;;;4978887;28;20179;-54
2023/07/30 06:15:00;;;;;;;3.73;2.67;;;;;;;;;;4988492;28;20183;-53
2023/07/30 06:17:26;;;;;;;5.17;2.80;;;;;;;;;;4985118;28;20810;-54
2023/07/30 06:19:52;;;;;;;6.00;3.03;;;;;;;;;;4982757;28;20563;-53
2023/07/30 06:22:19;;;;;;;5.67;2.30;;;;;;;;;;4971613;28;20186;-53
2023/07/30 06:24:45;;;;;;;3.67;2.37;;;;;;;;;;4988856;28;20187;-54
2023/07/30 06:27:12;;;;;;;5.93;2.63;;;;;;;;;;4982571;28;20663;-53
2023/07/30 06:29:38;;;;;;;3.40;2.23;;;;;;;;;;4983642;28;20211;-54
2023/07/30 06:32:04;;;;;;;4.60;2.50;;;;;;;;;;4979897;28;20221;-55
2023/07/30 06:34:30;;;;;;;3.63;2.20;;;;;;;;;;4973801;28;20651;-53
2023/07/30 06:36:56;;;;;;;3.93;2.20;;;;;;;;;;4978702;28;20237;-53
2023/07/30 06:39:22;;;;;;;4.07;2.30;;;;;;;;;;4987294;28;20184;-50
2023/07/30 06:41:48;;;;;;;4.57;2.43;;;;;;;;;;4973426;28;20818;-49
2023/07/30 06:44:14;;;;;;;5.07;2.40;;;;;;;;;;4981842;28;20263;-50
2023/07/30 06:46:40;;;;;;;4.63;2.37;;;;;;;;;;4977892;28;20616;-51
2023/07/30 06:49:06;;;;;;;5.17;2.33;;;;;;;;;;4970875;28;20184;-50
2023/07/30 06:51:33;;;;;;;4.50;2.43;;;;;;;;;;4980043;28;20205;-49
2023/07/30 06:53:59;;;;;;;3.93;2.30;;;;;;;;;;4986117;28;20537;-49
2023/07/30 06:56:25;;;;;;;5.13;2.83;;;;;;;;;;4977833;28;20632;-49
2023/07/30 06:58:51;;;;;;;4.10;2.50;;;;;;;;;;4976565;28;20234;-50
2023/07/30 07:01:17;;;;;;;2.57;1.90;;;;;;;;;;4977781;28;20643;-49
2023/07/30 07:03:43;;;;;;;5.93;2.30;;;;;;;;;;4977632;28;20191;-51
2023/07/30 07:06:09;;;;;;;6.27;3.50;;;;;;;;;;4977560;28;20202;-51
2023/07/30 07:08:35;;;;;;;5.50;2.40;;;;;;;;;;4981072;28;20188;-51
2023/07/30 07:11:02;;;;;;;5.67;2.47;;;;;;;;;;4979090;28;20702;-50
2023/07/30 07:13:28;;;;;;;6.43;2.03;;;;;;;;;;4981030;28;20189;-49
2023/07/30 07:15:54;;;;;;;8.83;2.30;;;;;;;;;;4981623;28;20198;-51
2023/07/30 07:18:20;;;;;;;6.97;3.80;;;;;;;;;;4975877;28;20642;-51
2023/07/30 07:20:46;;;;;;;5.80;2.70;;;;;;;;;;4982914;28;20658;-50
2023/07/30 07:23:12;;;;;;;4.97;2.70;;;;;;;;;;4982796;28;20187;-50
2023/07/30 07:25:38;;;;;;;6.27;2.73;;;;;;;;;;4984813;28;20203;-49
2023/07/30 07:28:04;;;;;;;7.90;2.40;;;;;;;;;;4978336;28;20184;-51
2023/07/30 07:30:31;;;;;;;6.17;2.87;;;;;;;;;;4979013;28;20679;-50
2023/07/30 07:32:57;;;;;;;5.30;2.63;;;;;;;;;;4977865;28;20199;-51
2023/07/30 07:35:23;;;;;;;8.13;2.90;;;;;;;;;;4978621;28;20183;-51
2023/07/30 07:37:49;;;;;;;6.90;3.00;;;;;;;;;;4978655;28;20282;-50
2023/07/30 07:40:15;;;;;;;7.53;2.90;;;;;;;;;;4985079;28;20653;-51
2023/07/30 07:42:41;;;;;;;7.60;3.27;;;;;;;;;;4980282;28;20183;-52
2023/07/30 07:45:08;;;;;;;6.27;2.57;;;;;;;;;;4970843;28;20180;-52
2023/07/30 07:47:34;;;;;;;10.50;3.50;;;;;;;;;;4977595;28;20608;-52
2023/07/30 07:50:00;;;;;;;7.77;3.37;;;;;;;;;;4987738;28;20207;-51
2023/07/30 07:52:26;;;;;;;5.10;2.83;;;;;;;;;;4979997;28;20191;-51
2023/07/30 07:54:52;;;;;;;12.23;3.77;;;;;;;;;;4986800;28;20186;-48
2023/07/30 07:57:18;;;;;;;6.57;2.77;;;;;;;;;;4985324;28;20530;-50
2023/07/30 07:59:44;;;;;;;8.33;2.90;;;;;;;;;;4979435;28;20721;-53
2023/07/30 08:02:11;;;;;;;11.90;3.43;;;;;;;;;;4970246;28;20180;-54
2023/07/30 08:04:37;;;;;;;8.40;2.97;;;;;;;;;;4972762;28;20190;-53
2023/07/30 08:07:03;;;;;;;8.00;2.90;;;;;;;;;;4974564;28;20207;-54
2023/07/30 08:09:30;;;;;;;4.57;2.77;;;;;;;;;;4977928;28;20187;-53
2023/07/30 08:11:56;;;;;;;7.47;2.77;;;;;;;;;;4977098;28;20195;-53
2023/07/30 08:14:22;;;;;;;8.20;2.83;;;;;;;;;;4974391;28;20173;-53
2023/07/30 08:16:48;;;;;;;4.47;3.07;;;;;;;;;;4972861;28;20187;-53
2023/07/30 08:19:14;;;;;;;5.13;2.73;;;;;;;;;;4980163;28;20187;-53
2023/07/30 08:21:40;;;;;;;6.47;2.80;;;;;;;;;;4978633;28;20191;-53
2023/07/30 08:24:06;;;;;;;3.60;2.67;;;;;;;;;;4982140;28;20208;-51
2023/07/30 08:26:32;;;;;;;5.87;3.17;;;;;;;;;;4983252;28;20725;-53
2023/07/30 08:28:58;;;;;;;5.00;2.93;;;;;;;;;;4980856;28;20179;-53
2023/07/30 08:31:24;;;;;;;4.73;2.70;;;;;;;;;;4974889;28;20234;-53
2023/07/30 08:33:50;;;;;;;7.43;3.23;;;;;;;;;;4976519;28;20554;-52
2023/07/30 08:36:16;;;;;;;9.73;3.80;;;;;;;;;;4971968;28;20179;-53
2023/07/30 08:38:42;;;;;;;5.47;2.73;;;;;;;;;;4974216;28;20194;-53
2023/07/30 08:41:09;;;;;;;6.40;3.20;;;;;;;;;;4971678;28;20188;-53
2023/07/30 08:43:35;;;;;;;7.10;3.27;;;;;;;;;;4983895;28;20183;-53
2023/07/30 08:46:01;;;;;;;9.73;3.97;;;;;;;;;;4974515;28;20665;-53
2023/07/30 08:48:28;;;;;;;10.50;3.47;;;;;;;;;;4979673;28;20259;-52
2023/07/30 08:50:57;;;;;;;9.13;3.73;;;;;;;;;;4974650;28;20524;-52
2023/07/30 08:53:26;;;;;;;12.37;3.57;;;;;;;;;;4980762;28;20216;-52
2023/07/30 08:55:54;;;;;;;11.83;3.73;;;;;;;;;;4979371;28;20272;-52
2023/07/30 08:58:20;;;;;;;4.40;2.80;;;;;;;;;;4981126;28;20179;-52
2023/07/30 09:00:47;;;;;;;9.33;3.70;;;;;;;;;;4973128;28;20296;-52
2023/07/30 09:03:14;;;;;;;6.23;3.43;;;;;;;;;;4985649;28;20179;-52
2023/07/30 09:05:40;;;;;;;8.10;4.10;;;;;;;;;;4978660;28;20207;-52
2023/07/30 09:08:06;;;;;;;4.60;3.00;;;;;;;;;;4979596;28;20543;-52
2023/07/30 09:10:32;;;;;;;6.03;2.93;;;;;;;;;;4972206;28;20188;-52
2023/07/30 09:12:59;;;;;;;7.30;2.57;;;;;;;;;;4980665;28;20581;-52
2023/07/30 09:15:32;;;;;;;7.07;3.10;;;;;;;;;;4977295;28;20179;-52
2023/07/30 09:17:58;;;;;;;8.83;3.00;;;;;;;;;;4981413;28;20630;-52
2023/07/30 09:20:24;;;;;;;8.53;3.60;;;;;;;;;;4976309;28;20207;-52
2023/07/30 09:22:50;;;;;;;7.37;3.10;;;;;;;;;;4979983;28;20199;-52
2023/07/30 09:25:20;;;;;;;6.50;3.00;;;;;;;;;;4973535;28;20303;-52
2023/07/30 09:27:49;;;;;;;5.33;2.80;;;;;;;;;;4973467;28;20188;-51
2023/07/30 09:30:15;;;;;;;6.90;2.70;;;;;;;;;;4969333;28;20658;-52
2023/07/30 09:32:41;;;;;;;6.20;3.23;;;;;;;;;;4972808;28;20184;-52
2023/07/30 09:35:08;;;;;;;4.00;2.50;;;;;;;;;;4974007;28;20181;-51
2023/07/30 09:37:38;;;;;;;10.57;3.50;;;;;;;;;;4976296;28;20179;-51
2023/07/30 09:40:14;;;;;;;3.80;2.33;;;;;;;;;;4977641;28;20231;-52
2023/07/30 09:42:44;;;;;;;6.70;2.70;;;;;;;;;;4975079;28;20182;-52
2023/07/30 09:45:20;;;;;;;8.13;2.73;;;;;;;;;;4973717;28;20872;-52
2023/07/30 09:47:50;;;;;;;5.80;2.73;;;;;;;;;;4976364;28;20698;-51
2023/07/30 09:50:16;;;;;;;5.13;2.70;;;;;;;;;;4976166;28;20177;-52
2023/07/30 09:52:43;;;;;;;5.23;3.00;;;;;;;;;;4980926;28;20191;-51
2023/07/30 09:55:09;;;;;;;5.90;2.60;;;;;;;;;;4976334;28;20361;-52
2023/07/30 09:57:36;;;;;;;10.17;3.20;;;;;;;;;;4984602;28;20282;-52
2023/07/30 10:00:04;;;;;;;4.73;2.90;;;;;;;;;;4981189;28;20525;-51
2023/07/30 10:02:31;;;;;;;5.67;2.53;;;;;;;;;;4977964;28;20242;-51
2023/07/30 10:04:57;;;;;;;9.53;2.97;;;;;;;;;;4979811;28;20185;-51
2023/07/30 10:07:24;;;;;;;5.67;2.30;;;;;;;;;;4975526;28;20544;-51
2023/07/30 10:09:53;;;;;;;5.20;2.20;;;;;;;;;;4973993;28;20597;-52
2023/07/30 10:12:22;;;;;;;5.60;2.67;;;;;;;;;;4986447;28;20171;-51
2023/07/30 10:14:48;;;;;;;5.60;2.77;;;;;;;;;;4981724;28;20794;-52
2023/07/30 10:17:14;;;;;;;5.23;2.80;;;;;;;;;;4970964;28;20564;-52
2023/07/30 10:19:40;;;;;;;5.13;3.10;;;;;;;;;;4978793;28;20252;-51
2023/07/30 10:22:09;;;;;;;3.77;2.67;;;;;;;;;;4981344;28;20984;-51
2023/07/30 10:24:35;;;;;;;5.33;3.57;;;;;;;;;;4973389;28;20231;-52
2023/07/30 10:27:06;;;;;;;5.93;3.00;;;;;;;;;;4971308;28;20217;-51
2023/07/30 10:29:39;;;;;;;5.93;2.57;;;;;;;;;;4975631;28;20250;-50
2023/07/30 10:32:06;;;;;;;4.87;2.03;;;;;;;;;;4983334;28;20189;-50
2023/07/30 10:34:45;;;;;;;5.57;2.80;;;;;;;;;;4974226;28;20586;-49
2023/07/30 10:37:11;;;;;;;4.67;2.70;;;;;;;;;;4971139;28;20663;-50
2023/07/30 10:39:37;;;;;;;3.10;2.10;;;;;;;;;;4982167;28;20185;-50
2023/07/30 10:42:03;;;;;;;6.90;2.90;;;;;;;;;;4979825;28;20633;-53
2023/07/30 10:44:31;;;;;;;6.83;2.70;;;;;;;;;;4978285;28;20220;-51
2023/07/30 10:46:58;;;;;;;5.97;2.90;;;;;;;;;;4970307;28;20212;-50
2023/07/30 10:49:25;;;;;;;4.47;2.30;;;;;;;;;;4979458;28;20276;-51
2023/07/30 10:51:57;;;;;;;5.87;2.50;;;;;;;;;;4970665;28;20177;-50
2023/07/30 10:54:25;;;;;;;3.27;2.10;;;;;;;;;;4981372;28;20179;-50
2023/07/30 10:56:52;;;;;;;6.00;3.10;;;;;;;;;;4979771;28;20642;-49
2023/07/30 10:59:18;;;;;;;5.63;2.40;;;;;;;;;;4983785;28;20208;-50
2023/07/30 11:01:46;;;;;;;7.50;2.40;;;;;;;;;;4983081;28;20193;-50
2023/07/30 11:04:21;;;;;;;4.80;2.30;;;;;;;;;;4979788;28;20248;-50
2023/07/30 11:06:49;;;;;;;5.03;2.50;;;;;;;;;;4981755;28;20293;-50
2023/07/30 11:09:22;;;;;;;7.40;2.70;;;;;;;;;;4977397;28;20262;-51
2023/07/30 11:11:49;;;;;;;5.30;2.10;;;;;;;;;;4971626;28;20524;-51
2023/07/30 11:14:22;;;;;;;6.37;2.50;;;;;;;;;;4984125;28;20174;-51
2023/07/30 11:17:02;;;;;;;5.70;2.10;;;;;;;;;;4971760;28;20879;-51
2023/07/30 11:19:29;;;;;;;5.30;2.37;;;;;;;;;;4975950;28;20190;-50
2023/07/30 11:21:59;;;;;;;6.20;2.60;;;;;;;;;;4972257;28;20202;-50
2023/07/30 11:24:38;;;;;;;5.13;2.47;;;;;;;;;;4979149;28;20185;-49
2023/07/30 11:27:04;;;;;;;4.53;2.30;;;;;;;;;;4977899;28;20200;-49
2023/07/30 11:29:30;;;;;;;3.73;2.17;;;;;;;;;;4969351;28;20194;-49
2023/07/30 11:31:58;;;;;;;3.53;1.93;;;;;;;;;;4984406;28;20169;-50
2023/07/30 11:34:25;;;;;;;5.67;2.43;;;;;;;;;;4982778;28;20247;-50
2023/07/30 11:36:51;;;;;;;4.80;2.37;;;;;;;;;;4971208;28;20230;-50
2023/07/30 11:39:18;;;;;;;5.67;2.00;;;;;;;;;;4982630;28;20231;-50
2023/07/30 11:41:45;;;;;;;2.13;1.80;;;;;;;;;;4978217;28;20643;-51
2023/07/30 11:44:29;;;;;;;4.90;2.23;;;;;;;;;;4983627;28;20201;-52
2023/07/30 11:46:55;;;;;;;4.83;2.63;;;;;;;;;;4981630;28;20213;-50
2023/07/30 11:49:21;;;;;;;4.30;2.43;;;;;;;;;;4979111;28;20196;-51
2023/07/30 11:51:48;;;;;;;4.80;2.37;;;;;;;;;;4984876;28;20674;-51
2023/07/30 11:54:21;;;;;;;7.40;2.83;;;;;;;;;;4979863;28;20179;-51
2023/07/30 11:56:47;;;;;;;5.33;2.43;;;;;;;;;;4977023;28;20252;-51
2023/07/30 11:59:13;;;;;;;4.87;2.40;;;;;;;;;;4976225;28;20189;-51
2023/07/30 12:01:42;;;;;;;3.17;2.27;;;;;;;;;;4983203;28;20201;-51
2023/07/30 12:04:09;;;;;;;5.57;2.40;;;;;;;;;;4978100;28;20187;-51
2023/07/30 12:06:39;;;;;;;4.13;2.10;;;;;;;;;;4970048;28;20249;-52
2023/07/30 12:09:12;;;;;;;4.77;2.60;;;;;;;;;;4972987;28;20191;-52
2023/07/30 12:11:45;;;;;;;3.43;2.00;;;;;;;;;;4984980;28;20233;-53
2023/07/30 12:14:11;;;;;;;5.03;2.20;;;;;;;;;;4984480;28;20310;-50
2023/07/30 12:16:37;;;;;;;2.67;2.10;;;;;;;;;;4985691;28;20190;-50
2023/07/30 12:19:03;;;;;;;4.03;2.17;;;;;;;;;;4980483;28;20242;-50
2023/07/30 12:21:29;;;;;;;3.20;2.27;;;;;;;;;;4977692;28;20187;-50
2023/07/30 12:23:56;;;;;;;2.80;2.00;;;;;;;;;;4987601;28;20187;-50
2023/07/30 12:26:22;;;;;;;4.90;2.27;;;;;;;;;;4985519;28;20211;-50
2023/07/30 12:28:48;;;;;;;3.80;1.90;;;;;;;;;;4987874;28;20741;-49
2023/07/30 12:31:14;;;;;;;3.47;2.37;;;;;;;;;;4975965;28;21649;-49
2023/07/30 12:33:40;;;;;;;3.97;2.17;;;;;;;;;;4986152;28;20179;-49
2023/07/30 12:36:06;;;;;;;3.67;2.20;;;;;;;;;;4973447;28;20191;-50
2023/07/30 12:38:32;;;;;;;3.30;2.40;;;;;;;;;;4987459;28;20190;-51
2023/07/30 12:40:58;;;;;;;4.50;2.13;;;;;;;;;;4978834;28;20214;-51
2023/07/30 12:43:25;;;;;;;2.70;1.77;;;;;;;;;;4983107;28;20209;-51
2023/07/30 12:45:51;;;;;;;4.90;1.90;;;;;;;;;;4977993;28;20242;-51
2023/07/30 12:48:17;;;;;;;5.33;1.83;;;;;;;;;;4993973;28;20180;-50
2023/07/30 12:50:43;;;;;;;4.30;2.17;;;;;;;;;;4977251;28;20710;-51
2023/07/30 12:53:09;;;;;;;2.20;1.87;;;;;;;;;;4981245;28;20202;-50
2023/07/30 12:55:35;;;;;;;2.57;1.80;;;;;;;;;;4982846;28;20188;-50
2023/07/30 12:58:01;;;;;;;2.63;1.70;;;;;;;;;;4979440;28;20210;-50
2023/07/30 13:00:27;;;;;;;3.87;2.00;;;;;;;;;;4978049;28;20188;-51
2023/07/30 13:02:55;;;;;;;3.30;2.03;;;;;;;;;;4986771;28;20463;-52
2023/07/30 13:05:22;;;;;;;3.90;2.20;;;;;;;;;;4978170;28;20504;-52
2023/07/30 13:07:48;;;;;;;3.03;1.70;;;;;;;;;;4978929;28;20172;-52
2023/07/30 13:10:14;;;;;;;3.67;2.53;;;;;;;;;;4980109;28;20200;-52
2023/07/30 13:12:41;;;;;;;4.77;1.77;;;;;;;;;;4979618;28;20180;-52
2023/07/30 13:15:07;;;;;;;3.03;1.93;;;;;;;;;;4973499;28;20180;-52
2023/07/30 13:17:33;;;;;;;4.30;2.17;;;;;;;;;;4976602;28;20184;-53
2023/07/30 13:19:59;;;;;;;5.17;2.73;;;;;;;;;;4984582;28;20179;-53
2023/07/30 13:22:26;;;;;;;4.30;2.50;;;;;;;;;;4977984;28;20266;-53
2023/07/30 13:24:52;;;;;;;4.10;2.30;;;;;;;;;;4981292;28;20180;-53
2023/07/30 13:27:18;;;;;;;5.43;2.30;;;;;;;;;;4989384;28;20718;-52
2023/07/30 13:29:45;;;;;;;3.20;1.90;;;;;;;;;;4975549;28;20227;-53
2023/07/30 13:32:11;;;;;;;4.23;2.10;;;;;;;;;;4976950;28;20176;-53
2023/07/30 13:34:37;;;;;;;3.53;2.20;;;;;;;;;;4979356;28;20184;-53
2023/07/30 13:37:03;;;;;;;5.10;2.27;;;;;;;;;;4982151;28;20569;-53
2023/07/30 13:39:29;;;;;;;3.13;2.03;;;;;;;;;;4984628;28;20191;-53
2023/07/30 13:41:55;;;;;;;3.50;2.30;;;;;;;;;;4977075;28;20185;-52
2023/07/30 13:44:21;;;;;;;4.20;2.00;;;;;;;;;;4980646;28;20703;-53
2023/07/30 13:46:47;;;;;;;4.87;2.30;;;;;;;;;;4989277;28;20686;-52
2023/07/30 13:49:13;;;;;;;5.27;2.30;;;;;;;;;;4981196;28;20558;-53
2023/07/30 13:51:39;;;;;;;3.27;2.10;;;;;;;;;;4974402;28;20175;-54
2023/07/30 13:54:07;;;;;;;4.17;2.17;;;;;;;;;;4984080;28;20174;-53
2023/07/30 13:56:34;;;;;;;3.50;2.20;;;;;;;;;;4972570;28;20284;-53
2023/07/30 13:59:00;;;;;;;3.10;2.30;;;;;;;;;;4979951;28;20179;-54
2023/07/30 14:01:26;;;;;;;5.20;2.60;;;;;;;;;;4981160;28;20225;-53
2023/07/30 14:03:52;;;;;;;5.43;3.10;;;;;;;;;;4980829;28;20179;-54
2023/07/30 14:06:18;;;;;;;6.40;2.87;;;;;;;;;;4981687;28;20560;-53
2023/07/30 14:08:44;;;;;;;8.13;3.00;;;;;;;;;;4981276;28;20184;-53
2023/07/30 14:11:11;;;;;;;4.47;2.50;;;;;;;;;;4978491;28;20199;-54
2023/07/30 14:13:37;;;;;;;5.67;2.57;;;;;;;;;;4977252;28;20278;-54
2023/07/30 14:16:04;;;;;;;8.20;2.53;;;;;;;;;;4982439;28;20642;-55
2023/07/30 14:18:30;;;;;;;4.60;2.30;;;;;;;;;;4987502;28;20261;-53
2023/07/30 14:20:56;;;;;;;6.53;2.80;;;;;;;;;;4985643;28;20184;-56
2023/07/30 14:23:23;;;;;;;4.97;2.40;;;;;;;;;;4979608;28;20180;-53
2023/07/30 14:25:49;;;;;;;6.87;2.40;;;;;;;;;;4974572;28;20218;-53
2023/07/30 14:28:16;;;;;;;5.33;3.30;;;;;;;;;;4981040;28;20176;-53
2023/07/30 14:30:44;;;;;;;2.87;1.77;;;;;;;;;;4984645;28;20652;-53
2023/07/30 14:33:11;;;;;;;3.60;2.20;;;;;;;;;;4977885;28;20951;-53
2023/07/30 14:35:38;;;;;;;4.83;2.13;;;;;;;;;;4972560;28;20194;-54
2023/07/30 14:38:04;;;;;;;4.30;2.63;;;;;;;;;;4981483;28;20543;-53
2023/07/30 14:40:31;;;;;;;5.03;2.50;;;;;;;;;;4975449;28;20665;-53